Nearby METAR Reports

 

KLOM - Philly Wings F, Pennsylvania, USA
Distance from station: SW 6mi, 10km
Updated: Fri, 19-Sep-2014 9:35am EDT
Overcast
Overcast
 Wind from ENE
Wind: ENE 7 mph , 11 km/h
Temperature: 59°F , 15°C
Dew Point: 50°F , 10°C
Humidity: 72%
Barometer: 30.30 inHg , 1026.1 hPa
Clouds: Overcast
Visibility: 10 miles , 16 km
Cloud details: Overcast 1900 ft
2014/09/19 13:35 KLOM 191335Z AUTO 06006KT 10SM OVC019 15/10 A3030 RMK AO1
KDYL - Doylestown, Pennsylvania, USA
Distance from station: NNE 10mi, 17km
Updated: Fri, 19-Sep-2014 8:54am EDT
Clear
Clear
 Wind from NNE
Wind: NNE 8 mph , 13 km/h
Temperature: 55°F , 13°C
Dew Point: 48°F , 9°C
Humidity: 77%
Barometer: 30.29 inHg , 1025.7 hPa
Clouds: Clear
Visibility: 10 miles , 16 km
2014/09/19 12:54 KDYL 191254Z AUTO 03007KT 10SM CLR 13/09 A3029 RMK AO2 SLP258 T01330089
KPNE - Philadelphia/Ne, Pennsylvania, USA
Distance from station: SE 11mi, 18km
Updated: Fri, 19-Sep-2014 8:54am EDT
Clear
Clear
 Wind from NE
Wind: NE 15 mph , 24 km/h
Temperature: 61°F , 16°C
Dew Point: 48°F , 9°C
Humidity: 63%
Barometer: 30.30 inHg , 1026.1 hPa
Clouds: Clear
Visibility: 10 miles , 16 km
2014/09/19 12:54 KPNE 191254Z 04013KT 10SM CLR 16/09 A3030 RMK AO2 SLP261 T01560089
 
KPTW - Pottstown, Pennsylvania, USA
Distance from station: W 20mi, 32km
Updated: Fri, 19-Sep-2014 8:54am EDT
Clear
Clear
 Wind from NE
Wind: NE 9 mph , 15 km/h
Temperature: 55°F , 13°C
Dew Point: 46°F , 8°C
Humidity: 72%
Barometer: 30.31 inHg , 1026.4 hPa
Clouds: Clear
Visibility: 10 miles , 16 km
2014/09/19 12:54 KPTW 191254Z AUTO 04008KT 10SM CLR 13/08 A3031 RMK AO2 SLP260 T01330083
KTTN - Trenton, New Jersey, USA
Distance from station: ENE 20mi, 32km
Updated: Fri, 19-Sep-2014 8:53am EDT
Overcast
Overcast
 Wind from NE
Wind: NE 10 mph , 17 km/h
Temperature: 55°F , 13°C
Dew Point: 48°F , 9°C
Humidity: 77%
Barometer: 30.29 inHg , 1025.7 hPa
Clouds: Overcast
Visibility: 10 miles , 16 km
Cloud details: Overcast 1800 ft
2014/09/19 12:53 KTTN 191253Z 05009KT 10SM OVC018 13/09 A3029 RMK AO2 SLP252 T01330089
KUKT - Quakertown Arp, Pennsylvania, USA
Distance from station: NNW 20mi, 32km
Updated: Fri, 19-Sep-2014 9:35am EDT
Clear
Clear
 Wind from NE
Wind: NE 8 mph , 13 km/h
Temperature: 57°F , 14°C
Dew Point: 46°F , 8°C
Humidity: 67%
Barometer: 30.32 inHg , 1026.8 hPa
Clouds: Clear
Visibility: 10 miles , 16 km
2014/09/19 13:35 KUKT 191335Z AUTO 04007KT 10SM CLR 14/08 A3032 RMK AO1
 
KPHL - Philadelphia, Pennsylvania, USA
Distance from station: S 22mi, 36km
Updated: Fri, 19-Sep-2014 8:54am EDT
Few Clouds
Few Clouds
 Wind from NE
Wind: NE 13 mph , 20 km/h
Temperature: 61°F , 16°C
Dew Point: 50°F , 10°C
Humidity: 68%
Barometer: 30.28 inHg , 1025.4 hPa
Clouds: Few Clouds
Visibility: 10 miles , 16 km
Cloud details: Few Clouds 2200 ft
Few Clouds 8000 ft
Few Clouds 25000 ft
2014/09/19 12:54 KPHL 191254Z 04011KT 10SM FEW022 FEW080 FEW250 16/10 A3028 RMK AO2 SLP254 T01610100
KVAY - Mount Holly, New Jersey, USA
Distance from station: SE 25mi, 41km
Updated: Fri, 19-Sep-2014 8:54am EDT
Clear
Clear
 Wind from NE
Wind: NE 6 mph , 9 km/h
Temperature: 59°F , 15°C
Dew Point: 50°F , 10°C
Humidity: 72%
Barometer: 30.28 inHg , 1025.4 hPa
Clouds: Clear
Visibility: 10 miles , 16 km
2014/09/19 12:54 KVAY 191254Z AUTO 05005KT 10SM CLR 15/10 A3028 RMK AO2 SLP252 T01500100
KXLL - Allentown Queen, Pennsylvania, USA
Distance from station: NNW 31mi, 49km
Updated: Fri, 19-Sep-2014 9:35am EDT
Clear
Clear
 Wind from NE
Wind: NE 8 mph , 13 km/h
Temperature: 57°F , 14°C
Dew Point: 45°F , 7°C
Humidity: 63%
Barometer: 30.33 inHg , 1027.1 hPa
Clouds: Clear
Visibility: 10 miles , 16 km
2014/09/19 13:35 KXLL 191335Z AUTO 05007KT 10SM CLR 14/07 A3033 RMK AO2
 
KWRI - Wrightst/Mcguire, New Jersey, USA
Distance from station: ESE 34mi, 54km
Updated: Fri, 19-Sep-2014 8:58am EDT
Few Clouds
Few Clouds
 Wind from NE
Wind: NE 14 mph , 22 km/h
Temperature: 59°F , 15°C
Dew Point: 52°F , 11°C
Humidity: 77%
Barometer: 30.26 inHg , 1024.7 hPa
Clouds: Few Clouds
Visibility: 10 miles , 16 km
Cloud details: Few Clouds 8500 ft
2014/09/19 12:58 KWRI 191258Z AUTO 04012KT 10SM FEW085 15/11 A3026 RMK AO2 SLP250 T01470114
KABE - Allentown, Pennsylvania, USA
Distance from station: NNW 35mi, 56km
Updated: Fri, 19-Sep-2014 8:51am EDT
Clear
Clear
 Wind from ENE
Wind: ENE 9 mph , 15 km/h
Temperature: 55°F , 13°C
Dew Point: 46°F , 8°C
Humidity: 72%
Barometer: 30.31 inHg , 1026.4 hPa
Clouds: Clear
Visibility: 10 miles , 16 km
2014/09/19 12:51 KABE 191251Z 07008KT 10SM CLR 13/08 A3031 RMK AO2 SLP263 T01280083
KMQS - Coatesville, Pennsylvania, USA
Distance from station: WSW 39mi, 63km
Updated: Fri, 19-Sep-2014 9:35am EDT
Clear
Clear
 Wind from ENE
Wind: ENE 6 mph , 9 km/h, Gust: 17 mph , 28 km/h
Temperature: 57°F , 14°C
Dew Point: 50°F , 10°C
Humidity: 77%
Barometer: 30.30 inHg , 1026.1 hPa
Clouds: Clear
Visibility: 10 miles , 16 km
2014/09/19 13:35 KMQS 191335Z AUTO 06005G15KT 10SM CLR 14/10 A3030 RMK AO2
 
KSMQ - Somerville, New Jersey, USA
Distance from station: NE 40mi, 64km
Updated: Fri, 19-Sep-2014 8:53am EDT
Mostly cloudy
Mostly cloudy
 Wind from ENE
Wind: ENE 8 mph , 13 km/h
Temperature: 55°F , 13°C
Dew Point: 46°F , 8°C
Humidity: 72%
Barometer: 30.30 inHg , 1026.1 hPa
Clouds: Mostly cloudy
Cloud details: Mostly cloudy 1800 ft
2014/09/19 12:53 KSMQ 191253Z AUTO 06007KT 020V090 BKN018 13/08 A3030 RMK AO2 SLP260 T01330078 TSNO
KILG - Wilmington, Delaware, USA
Distance from station: SSW 42mi, 68km
Updated: Fri, 19-Sep-2014 8:51am EDT
Clear
Clear
 Wind from NNE
Wind: NNE 12 mph , 19 km/h
Temperature: 61°F , 16°C
Dew Point: 52°F , 11°C
Humidity: 72%
Barometer: 30.28 inHg , 1025.4 hPa
Clouds: Clear
Visibility: 10 miles , 16 km
2014/09/19 12:51 KILG 191251Z 03010KT 10SM CLR 16/11 A3028 RMK AO2 SLP252 T01560106
KRDG - Reading, Pennsylvania, USA
Distance from station: WNW 43mi, 70km
Updated: Fri, 19-Sep-2014 8:54am EDT
Clear
Clear
 Wind from NE
Wind: NE 9 mph , 15 km/h
Temperature: 57°F , 14°C
Dew Point: 46°F , 8°C
Humidity: 67%
Barometer: 30.29 inHg , 1025.7 hPa
Clouds: Clear
Visibility: 10 miles , 16 km
2014/09/19 12:54 KRDG 191254Z AUTO 05008KT 10SM CLR 14/08 A3029 RMK AO2 SLP263 T01390083
 
KNEL - Lakehurst Nas, New Jersey, USA
Distance from station: ESE 46mi, 74km
Updated: Fri, 19-Sep-2014 1:00am EDT
NOT Current
Clear
Clear
 Wind from NW
Wind: NW 5 mph , 7 km/h
Clouds: Clear
Visibility: 7 miles , 11 km
2014/09/19 05:00 KNEL 190500Z AUTO 32004KT 7SM CLR 1 NO CARRIER RING CONNECT 1200 WBCDSMNAK ALL TTAA00 KNAK 190510 KNAK DS 18/09 741238/ 610135// 74/ 61//9960250/20/00/00/00/00/00/00/ 00/00/00/00/00/00/00/T/20/T/00/00/00/00/00/00/00/00/24/19121311/ 24141320/1/NN/N/N/NN/EW
KMJX - Toms River, New Jersey, USA
Distance from station: ESE 50mi, 80km
Updated: Fri, 19-Sep-2014 9:35am EDT
Overcast
Overcast
 Wind from ENE
Wind: ENE 9 mph , 15 km/h
Temperature: 61°F , 16°C
Dew Point: 52°F , 11°C
Humidity: 72%
Barometer: 30.30 inHg , 1026.1 hPa
Clouds: Overcast
Visibility: 10 miles , 16 km
Cloud details: Mostly cloudy 2100 ft
Overcast 2800 ft
2014/09/19 13:35 KMJX 191335Z AUTO 06008KT 10SM BKN021 OVC028 16/11 A3030 RMK AO1